createdAt,value
2016-12-05T00:00:34.280Z,0
2016-12-05T00:01:34.982Z,0
2016-12-05T00:02:35.342Z,0
2016-12-05T00:03:35.870Z,0
2016-12-05T00:04:36.407Z,0
2016-12-05T00:05:36.934Z,0
2016-12-05T00:06:37.469Z,0
2016-12-05T00:07:38.003Z,0
2016-12-05T00:08:38.532Z,0
2016-12-05T00:09:39.072Z,0
2016-12-05T00:10:39.590Z,0
2016-12-05T00:11:40.132Z,0
2016-12-05T00:12:40.655Z,0
2016-12-05T00:13:41.187Z,0
2016-12-05T00:14:41.717Z,0
2016-12-05T00:15:42.250Z,0
2016-12-05T00:16:42.802Z,0
2016-12-05T00:17:43.306Z,0
2016-12-05T00:18:43.986Z,0
2016-12-05T00:19:44.370Z,0
2016-12-05T00:20:45.046Z,0
2016-12-05T00:21:45.435Z,0
2016-12-05T00:22:46.105Z,0
2016-12-05T00:23:46.491Z,0
2016-12-05T00:24:47.168Z,0
2016-12-05T00:25:47.549Z,0
2016-12-05T00:26:48.077Z,0
2016-12-05T00:27:48.607Z,0
2016-12-05T00:28:49.139Z,0
2016-12-05T00:29:49.676Z,0
2016-12-05T00:30:50.207Z,0
2016-12-05T00:31:50.882Z,0
2016-12-05T00:32:51.289Z,0
2016-12-05T00:33:51.944Z,0
2016-12-05T00:34:52.332Z,0
2016-12-05T00:35:52.997Z,0
2016-12-05T00:36:53.381Z,0
2016-12-05T00:37:53.914Z,0
2016-12-05T00:38:54.441Z,0
2016-12-05T00:39:55.120Z,0
2016-12-05T00:40:55.499Z,0
2016-12-05T00:41:56.227Z,0
2016-12-05T00:42:56.596Z,0
2016-12-05T00:43:57.093Z,0
2016-12-05T00:44:57.624Z,0
2016-12-05T00:45:58.159Z,0
2016-12-05T00:46:58.846Z,0
2016-12-05T00:47:59.377Z,0
2016-12-05T00:48:59.786Z,0
2016-12-05T00:50:00.435Z,0
2016-12-05T00:51:00.967Z,0
2016-12-05T00:52:01.491Z,0
2016-12-05T00:53:01.899Z,0
2016-12-05T00:54:02.549Z,0
2016-12-05T00:55:02.943Z,0
2016-12-05T00:56:03.465Z,0
2016-12-05T00:57:03.992Z,0
2016-12-05T00:58:04.669Z,0
2016-12-05T00:59:05.098Z,0
2016-12-05T01:00:05.586Z,0
2016-12-05T01:01:06.261Z,0
2016-12-05T01:02:06.643Z,0
2016-12-05T01:03:07.321Z,0
2016-12-05T01:04:07.701Z,0
2016-12-05T01:05:08.230Z,0
2016-12-05T01:06:08.760Z,0
2016-12-05T01:07:09.290Z,0
2016-12-05T01:08:09.823Z,0
2016-12-05T01:09:10.377Z,0
2016-12-05T01:10:11.029Z,0
2016-12-05T01:11:11.565Z,0
2016-12-05T01:12:11.945Z,0
2016-12-05T01:13:12.480Z,0
2016-12-05T01:14:13.014Z,0
2016-12-05T01:15:13.687Z,0
2016-12-05T01:16:14.066Z,0
2016-12-05T01:17:14.627Z,0
2016-12-05T01:18:15.121Z,0
2016-12-05T01:19:15.801Z,0
2016-12-05T01:20:16.179Z,0
2016-12-05T01:21:16.887Z,0
2016-12-05T01:22:17.385Z,0
2016-12-05T01:23:17.807Z,0
2016-12-05T01:24:18.447Z,0
2016-12-05T01:25:18.983Z,0
2016-12-05T01:26:19.369Z,0
2016-12-05T01:27:19.899Z,0
2016-12-05T01:28:20.583Z,0
2016-12-05T01:29:21.119Z,0
2016-12-05T01:30:21.642Z,0
2016-12-05T01:31:22.171Z,0
2016-12-05T01:32:22.553Z,0
2016-12-05T01:33:23.081Z,0
2016-12-05T01:34:23.611Z,0
2016-12-05T01:35:24.137Z,0
2016-12-05T01:36:24.816Z,0
2016-12-05T01:37:25.199Z,0
2016-12-05T01:38:25.731Z,0
2016-12-05T01:39:26.287Z,0
2016-12-05T01:40:26.935Z,0
2016-12-05T01:41:27.318Z,0
2016-12-05T01:42:27.993Z,0
2016-12-05T01:43:28.411Z,0
2016-12-05T01:44:28.906Z,0
2016-12-05T01:45:29.583Z,0
2016-12-05T01:46:29.963Z,0
2016-12-05T01:47:30.500Z,0
2016-12-05T01:48:31.167Z,0
2016-12-05T01:49:31.588Z,0
2016-12-05T01:50:32.086Z,0
2016-12-05T01:51:32.764Z,0
2016-12-05T01:52:33.144Z,0
2016-12-05T01:53:33.822Z,0
2016-12-05T01:54:34.350Z,0
2016-12-05T01:55:34.736Z,0
2016-12-05T01:56:35.263Z,0
2016-12-05T01:57:35.787Z,0
2016-12-05T01:58:36.467Z,0
2016-12-05T01:59:36.999Z,0
2016-12-05T02:00:37.381Z,0
2016-12-05T02:01:38.057Z,0
2016-12-05T02:02:38.583Z,0
2016-12-05T02:03:38.995Z,0
2016-12-05T02:04:39.500Z,0
2016-12-05T02:05:40.059Z,0
2016-12-05T02:06:40.572Z,0
2016-12-05T02:07:41.128Z,0
2016-12-05T02:08:41.636Z,0
2016-12-05T02:09:42.205Z,0
2016-12-05T02:10:42.704Z,0
2016-12-05T02:11:43.232Z,0
2016-12-05T02:12:43.762Z,0
2016-12-05T02:13:44.441Z,0
2016-12-05T02:14:44.972Z,0
2016-12-05T02:15:45.499Z,0
2016-12-05T02:16:45.882Z,0
2016-12-05T02:17:46.558Z,0
2016-12-05T02:18:47.088Z,0
2016-12-05T02:19:47.476Z,0
2016-12-05T02:20:48.000Z,0
2016-12-05T02:21:48.564Z,0
2016-12-05T02:22:49.204Z,0
2016-12-05T02:23:49.587Z,0
2016-12-05T02:24:50.113Z,0
2016-12-05T02:25:50.792Z,0
2016-12-05T02:26:51.174Z,0
2016-12-05T02:27:51.731Z,0
2016-12-05T02:28:52.232Z,0
2016-12-05T02:29:52.908Z,0
2016-12-05T02:30:53.432Z,0
2016-12-05T02:31:53.964Z,0
2016-12-05T02:32:54.347Z,0
2016-12-05T02:33:54.872Z,0
2016-12-05T02:34:55.401Z,0
2016-12-05T02:35:55.929Z,0
2016-12-05T02:36:56.608Z,0
2016-12-05T02:37:57.140Z,0
2016-12-05T02:38:57.525Z,0
2016-12-05T02:39:58.055Z,0
2016-12-05T02:40:58.730Z,0
2016-12-05T02:41:59.261Z,0
2016-12-05T02:42:59.639Z,0
2016-12-05T02:44:00.166Z,0
2016-12-05T02:45:02.054Z,0
2016-12-05T02:46:01.231Z,0
2016-12-05T02:47:01.907Z,0
2016-12-05T02:48:02.296Z,0
2016-12-05T02:49:02.828Z,0
2016-12-05T02:50:03.360Z,0
2016-12-05T02:51:03.893Z,0
2016-12-05T02:52:04.570Z,0
2016-12-05T02:53:05.100Z,0
2016-12-05T02:54:05.631Z,0
2016-12-05T02:55:06.159Z,0
2016-12-05T02:56:06.537Z,0
2016-12-05T02:57:07.216Z,0
2016-12-05T02:58:07.597Z,0
2016-12-05T02:59:08.125Z,0
2016-12-05T03:00:08.803Z,0
2016-12-05T03:01:09.184Z,0
2016-12-05T03:02:09.741Z,0
2016-12-05T03:03:10.251Z,0
2016-12-05T03:04:10.774Z,0
2016-12-05T03:05:11.306Z,0
2016-12-05T03:06:11.860Z,0
2016-12-05T03:07:12.371Z,0
2016-12-05T03:08:12.894Z,0
2016-12-05T03:09:13.425Z,0
2016-12-05T03:10:14.104Z,0
2016-12-05T03:11:14.487Z,0
2016-12-05T03:12:15.046Z,0
2016-12-05T03:13:15.543Z,0
2016-12-05T03:14:16.219Z,0
2016-12-05T03:15:16.596Z,0
2016-12-05T03:16:17.274Z,0
2016-12-05T03:17:17.658Z,0
2016-12-05T03:18:18.205Z,0
2016-12-05T03:19:18.855Z,0
2016-12-05T03:20:19.537Z,0
2016-12-05T03:21:19.772Z,0
2016-12-05T03:22:20.296Z,0
2016-12-05T03:23:20.823Z,0
2016-12-05T03:24:21.389Z,0
2016-12-05T03:25:22.029Z,0
2016-12-05T03:26:22.424Z,0
2016-12-05T03:27:23.094Z,0
2016-12-05T03:28:23.516Z,0
2016-12-05T03:29:24.012Z,0
2016-12-05T03:30:24.568Z,0
2016-12-05T03:31:25.221Z,0
2016-12-05T03:32:25.602Z,0
2016-12-05T03:33:26.129Z,0
2016-12-05T03:34:26.809Z,0
2016-12-05T03:35:27.193Z,0
2016-12-05T03:36:27.756Z,0
2016-12-05T03:37:28.399Z,0
2016-12-05T03:38:31.795Z,0
2016-12-05T03:39:29.455Z,0
2016-12-05T03:40:29.878Z,0
2016-12-05T03:41:30.512Z,0
2016-12-05T03:42:30.898Z,0
2016-12-05T03:43:31.450Z,0
2016-12-05T03:44:31.953Z,0
2016-12-05T03:45:32.631Z,0
2016-12-05T03:46:33.013Z,0
2016-12-05T03:47:33.565Z,0
2016-12-05T03:48:34.071Z,0
2016-12-05T03:49:34.619Z,0
2016-12-05T03:50:35.164Z,0
2016-12-05T03:51:35.661Z,0
2016-12-05T03:52:36.225Z,0
2016-12-05T03:53:36.723Z,0
2016-12-05T03:54:37.399Z,0
2016-12-05T03:55:37.783Z,0
2016-12-05T03:56:38.461Z,0
2016-12-05T03:57:38.837Z,0
2016-12-05T03:58:39.394Z,0
2016-12-05T03:59:39.899Z,0
2016-12-05T04:00:40.573Z,0
2016-12-05T04:01:40.960Z,0
2016-12-05T04:02:41.487Z,0
2016-12-05T04:03:42.162Z,0
2016-12-05T04:04:42.549Z,0
2016-12-05T04:05:43.085Z,0
2016-12-05T04:06:43.761Z,0
2016-12-05T04:07:44.150Z,0
2016-12-05T04:08:44.677Z,0
2016-12-05T04:09:45.358Z,0
2016-12-05T04:10:45.744Z,0
2016-12-05T04:11:46.417Z,0
2016-12-05T04:12:46.809Z,0
2016-12-05T04:13:47.327Z,0
2016-12-05T04:14:47.863Z,0
2016-12-05T04:15:48.386Z,0
2016-12-05T04:16:49.067Z,0
2016-12-05T04:17:49.593Z,0
2016-12-05T04:18:50.130Z,0
2016-12-05T04:19:50.507Z,0
2016-12-05T04:20:51.067Z,0
2016-12-05T04:21:51.707Z,0
2016-12-05T04:22:52.090Z,0
2016-12-05T04:23:52.619Z,0
2016-12-05T04:24:53.148Z,0
2016-12-05T04:25:53.678Z,0
2016-12-05T04:26:54.353Z,0
2016-12-05T04:27:54.878Z,0
2016-12-05T04:28:55.264Z,0
2016-12-05T04:29:55.799Z,0
2016-12-05T04:30:56.321Z,0
2016-12-05T04:31:57.002Z,0
2016-12-05T04:32:57.380Z,0
2016-12-05T04:33:57.914Z,0
2016-12-05T04:34:58.589Z,0
2016-12-05T04:35:58.971Z,0
2016-12-05T04:36:59.652Z,0
2016-12-05T04:38:00.034Z,0
2016-12-05T04:39:00.606Z,0
2016-12-05T04:40:01.248Z,0
2016-12-05T04:41:01.762Z,0
2016-12-05T04:42:02.145Z,0
2016-12-05T04:43:02.819Z,0
2016-12-05T04:44:03.205Z,0
2016-12-05T04:45:03.879Z,0
2016-12-05T04:46:04.262Z,0
2016-12-05T04:47:04.793Z,0
2016-12-05T04:48:05.474Z,0
2016-12-05T04:49:05.858Z,0
2016-12-05T04:50:06.538Z,0
2016-12-05T04:51:06.949Z,0
2016-12-05T04:52:07.456Z,0
2016-12-05T04:53:08.130Z,0
2016-12-05T04:54:08.513Z,0
2016-12-05T04:55:09.047Z,0
2016-12-05T04:56:09.713Z,0
2016-12-05T04:57:10.121Z,0
2016-12-05T04:58:10.623Z,0
2016-12-05T04:59:11.157Z,0
2016-12-05T05:00:11.685Z,0
2016-12-05T05:01:12.247Z,0
2016-12-05T05:02:12.890Z,0
2016-12-05T05:03:13.299Z,0
2016-12-05T05:04:13.803Z,0
2016-12-05T05:05:14.366Z,0
2016-12-05T05:06:15.009Z,0
2016-12-05T05:07:15.391Z,0
2016-12-05T05:08:15.924Z,0
2016-12-05T05:09:16.482Z,0
2016-12-05T05:10:17.126Z,0
2016-12-05T05:11:17.544Z,0
2016-12-05T05:12:18.040Z,0
2016-12-05T05:13:18.568Z,0
2016-12-05T05:14:19.242Z,0
2016-12-05T05:15:19.660Z,0
2016-12-05T05:16:20.156Z,0
2016-12-05T05:17:20.833Z,0
2016-12-05T05:18:21.211Z,0
2016-12-05T05:19:21.895Z,0
2016-12-05T05:20:22.418Z,0
2016-12-05T05:21:22.836Z,0
2016-12-05T05:22:23.330Z,0
2016-12-05T05:23:23.858Z,0
2016-12-05T05:24:24.388Z,0
2016-12-05T05:25:24.914Z,0
2016-12-05T05:26:25.595Z,0
2016-12-05T05:27:25.984Z,0
2016-12-05T05:28:26.512Z,0
2016-12-05T05:29:27.061Z,0
2016-12-05T05:30:27.728Z,0
2016-12-05T05:31:28.141Z,0
2016-12-05T05:32:28.791Z,0
2016-12-05T05:33:29.175Z,0
2016-12-05T05:34:29.706Z,0
2016-12-05T05:35:30.239Z,0
2016-12-05T05:36:30.911Z,0
2016-12-05T05:37:31.327Z,0
2016-12-05T05:38:31.851Z,0
2016-12-05T05:39:32.350Z,0
2016-12-05T05:40:32.887Z,0
2016-12-05T05:41:33.435Z,0
2016-12-05T05:42:34.086Z,0
2016-12-05T05:43:34.618Z,0
2016-12-05T05:44:35.000Z,0
2016-12-05T05:45:35.566Z,0
2016-12-05T05:46:36.061Z,0
2016-12-05T05:47:36.589Z,0
2016-12-05T05:48:37.271Z,0
2016-12-05T05:49:37.805Z,0
2016-12-05T05:50:38.327Z,0
2016-12-05T05:51:38.736Z,0
2016-12-05T05:52:39.390Z,0
2016-12-05T05:53:39.779Z,0
2016-12-05T05:54:40.298Z,0
2016-12-05T05:55:40.981Z,0
2016-12-05T05:56:41.358Z,0
2016-12-05T05:57:41.908Z,0
2016-12-05T05:58:42.415Z,0
2016-12-05T05:59:42.943Z,0
2016-12-05T06:00:43.618Z,0
2016-12-05T06:01:44.152Z,0
2016-12-05T06:02:44.533Z,0
2016-12-05T06:03:45.213Z,0
2016-12-05T06:04:45.738Z,0
2016-12-05T06:05:46.272Z,0
2016-12-05T06:06:46.654Z,0
2016-12-05T06:07:47.177Z,0
2016-12-05T06:08:47.710Z,0
2016-12-05T06:09:48.398Z,0
2016-12-05T06:10:48.782Z,0
2016-12-05T06:11:49.312Z,0
2016-12-05T06:12:49.845Z,0
2016-12-05T06:13:50.520Z,0
2016-12-05T06:14:50.915Z,0
2016-12-05T06:15:51.584Z,0
2016-12-05T06:16:51.962Z,0
2016-12-05T06:17:52.645Z,0
2016-12-05T06:18:53.022Z,0
2016-12-05T06:19:53.700Z,0
2016-12-05T06:20:54.081Z,0
2016-12-05T06:21:54.608Z,0
2016-12-05T06:22:55.135Z,0
2016-12-05T06:23:55.665Z,0
2016-12-05T06:24:56.193Z,0
2016-12-05T06:25:56.741Z,0
2016-12-05T06:26:57.253Z,0
2016-12-05T06:27:57.784Z,0
2016-12-05T06:28:58.320Z,0
2016-12-05T06:29:58.996Z,0
2016-12-05T06:30:59.522Z,0
2016-12-05T06:31:59.940Z,0
2016-12-05T06:33:00.581Z,0
2016-12-05T06:34:00.988Z,0
2016-12-05T06:35:01.491Z,0
2016-12-05T06:36:02.021Z,0
2016-12-05T06:37:02.549Z,0
2016-12-05T06:38:03.090Z,0
2016-12-05T06:39:03.607Z,0
2016-12-05T06:40:04.345Z,0
2016-12-05T06:41:04.659Z,0
2016-12-05T06:42:05.201Z,0
2016-12-05T06:43:05.864Z,0
2016-12-05T06:44:06.247Z,0
2016-12-05T06:45:06.924Z,0
2016-12-05T06:46:07.456Z,0
2016-12-05T06:47:07.839Z,0
2016-12-05T06:48:08.519Z,0
2016-12-05T06:49:09.047Z,0
2016-12-05T06:50:09.462Z,0
2016-12-05T06:51:09.972Z,0
2016-12-05T06:52:10.534Z,0
2016-12-05T06:53:11.176Z,0
2016-12-05T06:54:11.569Z,0
2016-12-05T06:55:12.087Z,0
2016-12-05T06:56:12.616Z,0
2016-12-05T06:57:13.150Z,0
2016-12-05T06:58:13.712Z,0
2016-12-05T06:59:14.356Z,0
2016-12-05T07:00:14.771Z,0
2016-12-05T07:01:15.268Z,0
2016-12-05T07:02:15.839Z,0
2016-12-05T07:03:16.328Z,0
2016-12-05T07:04:16.855Z,0
2016-12-05T07:05:17.380Z,0
2016-12-05T07:06:17.909Z,0
2016-12-05T07:07:18.445Z,0
2016-12-05T07:08:18.997Z,0
2016-12-05T07:09:19.651Z,0
2016-12-05T07:10:20.042Z,0
2016-12-05T07:11:20.705Z,0
2016-12-05T07:12:21.239Z,0
2016-12-05T07:13:21.769Z,0
2016-12-05T07:14:22.151Z,0
2016-12-05T07:15:22.829Z,0
2016-12-05T07:16:23.363Z,0
2016-12-05T07:17:23.890Z,0
2016-12-05T07:18:24.306Z,0
2016-12-05T07:19:24.805Z,0
2016-12-05T07:20:25.488Z,0
2016-12-05T07:21:25.866Z,0
2016-12-05T07:22:26.427Z,0
2016-12-05T07:23:26.923Z,0
2016-12-05T07:24:27.452Z,0
2016-12-05T07:25:27.981Z,0
2016-12-05T07:26:28.540Z,0
2016-12-05T07:27:29.050Z,0
2016-12-05T07:28:29.588Z,0
2016-12-05T07:29:30.111Z,0
2016-12-05T07:30:30.794Z,0
2016-12-05T07:31:31.182Z,0
2016-12-05T07:32:31.858Z,0
2016-12-05T07:33:32.242Z,0
2016-12-05T07:34:32.804Z,0
2016-12-05T07:35:33.298Z,0
2016-12-05T07:36:33.856Z,0
2016-12-05T07:37:34.358Z,0
2016-12-05T07:38:35.036Z,0
2016-12-05T07:39:35.562Z,0
2016-12-05T07:40:35.944Z,0
2016-12-05T07:41:36.472Z,0
2016-12-05T07:42:37.153Z,0
2016-12-05T07:43:37.679Z,0
2016-12-05T07:44:38.212Z,0
2016-12-05T07:45:38.591Z,0
2016-12-05T07:46:39.122Z,0
2016-12-05T07:47:39.796Z,0
2016-12-05T07:48:40.178Z,0
2016-12-05T07:49:40.739Z,0
2016-12-05T07:50:41.276Z,0
2016-12-05T07:51:41.776Z,0
2016-12-05T07:52:42.307Z,0
2016-12-05T07:53:42.981Z,0
2016-12-05T07:54:43.513Z,0
2016-12-05T07:55:43.892Z,0
2016-12-05T07:56:44.424Z,0
2016-12-05T07:57:44.955Z,0
2016-12-05T07:58:45.517Z,0
2016-12-05T07:59:46.016Z,0
2016-12-05T08:00:46.690Z,0
2016-12-05T08:01:47.074Z,0
2016-12-05T08:02:47.757Z,0
2016-12-05T08:03:48.132Z,0
2016-12-05T08:04:48.697Z,11
2016-12-05T08:05:49.198Z,13
2016-12-05T08:06:49.720Z,14
2016-12-05T08:07:50.398Z,16
2016-12-05T08:08:50.931Z,18
2016-12-05T08:09:51.316Z,18
2016-12-05T08:10:51.849Z,19
2016-12-05T08:11:52.532Z,21
2016-12-05T08:12:52.918Z,21
2016-12-05T08:13:53.594Z,21
2016-12-05T08:14:54.130Z,21
2016-12-05T08:15:54.511Z,20
2016-12-05T08:16:55.035Z,20
2016-12-05T08:17:55.571Z,20
2016-12-05T08:18:56.097Z,20
2016-12-05T08:19:56.631Z,20
2016-12-05T08:20:57.305Z,20
2016-12-05T08:21:57.834Z,20
2016-12-05T08:22:58.253Z,21
2016-12-05T08:23:58.749Z,21
2016-12-05T08:24:59.431Z,21
2016-12-05T08:25:59.811Z,22
2016-12-05T08:27:00.344Z,24
2016-12-05T08:28:00.872Z,26
2016-12-05T08:29:01.402Z,26
2016-12-05T08:30:02.077Z,28
2016-12-05T08:31:02.461Z,32
2016-12-05T08:32:03.136Z,35
2016-12-05T08:33:03.532Z,42
2016-12-05T08:34:04.051Z,48
2016-12-05T08:35:04.577Z,54
2016-12-05T08:36:05.256Z,60
2016-12-05T08:37:05.634Z,62
2016-12-05T08:38:06.198Z,63
2016-12-05T08:39:06.847Z,64
2016-12-05T08:40:07.524Z,68
2016-12-05T08:41:07.901Z,73
2016-12-05T08:42:08.428Z,80
2016-12-05T08:43:08.821Z,85
2016-12-05T08:44:09.346Z,95
2016-12-05T08:45:09.905Z,105
2016-12-05T08:46:10.400Z,108
2016-12-05T08:47:10.927Z,112
2016-12-05T08:48:11.459Z,116
2016-12-05T08:49:12.018Z,116
2016-12-05T08:50:12.670Z,119
2016-12-05T08:51:13.065Z,122
2016-12-05T08:52:13.592Z,124
2016-12-05T08:53:14.131Z,123
2016-12-05T08:54:14.798Z,129
2016-12-05T08:55:15.329Z,130
2016-12-05T08:56:15.712Z,132
2016-12-05T08:57:16.242Z,134
2016-12-05T08:58:16.918Z,139
2016-12-05T08:59:17.304Z,140
2016-12-05T09:00:17.832Z,142
2016-12-05T09:01:18.508Z,144
2016-12-05T09:02:19.034Z,146
2016-12-05T09:03:19.419Z,148
2016-12-05T09:04:20.087Z,147
2016-12-05T09:05:20.616Z,151
2016-12-05T09:06:21.000Z,134
2016-12-05T09:07:21.527Z,136
2016-12-05T09:08:22.062Z,153
2016-12-05T09:09:22.619Z,154
2016-12-05T09:10:23.123Z,156
2016-12-05T09:11:23.687Z,158
2016-12-05T09:12:24.327Z,160
2016-12-05T09:13:24.862Z,162
2016-12-05T09:14:25.388Z,164
2016-12-05T09:15:25.776Z,167
2016-12-05T09:16:26.301Z,155
2016-12-05T09:17:26.830Z,157
2016-12-05T09:18:27.364Z,173
2016-12-05T09:19:27.884Z,175
2016-12-05T09:20:28.445Z,176
2016-12-05T09:21:29.100Z,177
2016-12-05T09:22:29.475Z,179
2016-12-05T09:23:30.039Z,180
2016-12-05T09:24:30.534Z,181
2016-12-05T09:25:31.067Z,183
2016-12-05T09:26:31.619Z,186
2016-12-05T09:27:32.153Z,187
2016-12-05T09:28:32.650Z,189
2016-12-05T09:29:33.209Z,191
2016-12-05T09:30:33.743Z,193
2016-12-05T09:31:34.247Z,192
2016-12-05T09:32:34.933Z,192
2016-12-05T09:33:35.469Z,197
2016-12-05T09:34:35.994Z,199
2016-12-05T09:35:36.389Z,200
2016-12-05T09:36:37.058Z,202
2016-12-05T09:37:37.591Z,204
2016-12-05T09:38:38.118Z,206
2016-12-05T09:39:38.531Z,207
2016-12-05T09:40:39.180Z,208
2016-12-05T09:41:39.591Z,209
2016-12-05T09:42:40.093Z,198
2016-12-05T09:43:40.772Z,186
2016-12-05T09:44:41.181Z,194
2016-12-05T09:45:41.710Z,196
2016-12-05T09:46:42.364Z,199
2016-12-05T09:47:42.748Z,192
2016-12-05T09:48:43.280Z,201
2016-12-05T09:49:43.809Z,189
2016-12-05T09:50:44.487Z,190
2016-12-05T09:51:44.864Z,192
2016-12-05T09:52:45.409Z,193
2016-12-05T09:53:45.926Z,194
2016-12-05T09:54:46.464Z,197
2016-12-05T09:55:46.993Z,180
2016-12-05T09:56:47.667Z,181
2016-12-05T09:57:48.046Z,182
2016-12-05T09:58:48.582Z,181
2016-12-05T09:59:49.255Z,178
2016-12-05T10:00:49.636Z,178
2016-12-05T10:01:50.163Z,168
2016-12-05T10:02:50.718Z,171
2016-12-05T10:03:51.237Z,172
2016-12-05T10:04:51.903Z,163
2016-12-05T10:05:52.435Z,152
2016-12-05T10:06:52.819Z,155
2016-12-05T10:07:53.349Z,173
2016-12-05T10:08:53.884Z,176
2016-12-05T10:09:54.558Z,177
2016-12-05T10:10:54.937Z,174
2016-12-05T10:11:55.621Z,171
2016-12-05T10:12:56.154Z,180
2016-12-05T10:13:56.573Z,175
2016-12-05T10:14:57.092Z,179
2016-12-05T10:15:57.598Z,182
2016-12-05T10:16:58.126Z,184
2016-12-05T10:17:58.801Z,185
2016-12-05T10:18:59.185Z,186
2016-12-05T10:19:59.710Z,187
2016-12-05T10:21:00.246Z,187
2016-12-05T10:22:00.919Z,189
2016-12-05T10:23:01.300Z,189
2016-12-05T10:24:01.831Z,186
2016-12-05T10:25:02.507Z,187
2016-12-05T10:26:02.894Z,188
2016-12-05T10:27:03.567Z,193
2016-12-05T10:28:03.950Z,185
2016-12-05T10:29:04.482Z,208
2016-12-05T10:30:05.161Z,244
2016-12-05T10:31:05.689Z,260
2016-12-05T10:32:06.222Z,283
2016-12-05T10:33:06.601Z,284
2016-12-05T10:34:07.129Z,278
2016-12-05T10:35:07.804Z,260
2016-12-05T10:36:08.337Z,259
2016-12-05T10:37:08.715Z,262
2016-12-05T10:38:09.250Z,261
2016-12-05T10:39:10.123Z,268
2016-12-05T10:40:10.451Z,269
2016-12-05T10:41:10.830Z,239
2016-12-05T10:42:11.359Z,196
2016-12-05T10:43:11.896Z,146
2016-12-05T10:44:12.449Z,255
2016-12-05T10:45:12.954Z,231
2016-12-05T10:46:13.630Z,169
2016-12-05T10:47:14.038Z,96
2016-12-05T10:48:14.579Z,232
2016-12-05T10:49:15.072Z,231
2016-12-05T10:50:15.755Z,231
2016-12-05T10:51:16.176Z,235
2016-12-05T10:52:16.703Z,229
2016-12-05T10:53:17.213Z,230
2016-12-05T10:54:17.770Z,234
2016-12-05T10:55:18.279Z,233
2016-12-05T10:56:18.843Z,237
2016-12-05T10:57:19.342Z,236
2016-12-05T10:58:19.873Z,237
2016-12-05T10:59:20.401Z,239
2016-12-05T11:00:21.084Z,234
2016-12-05T11:01:21.609Z,237
2016-12-05T11:02:22.001Z,228
2016-12-05T11:03:22.665Z,229
2016-12-05T11:04:23.078Z,239
2016-12-05T11:05:23.577Z,229
2016-12-05T11:06:24.107Z,195
2016-12-05T11:07:24.781Z,235
2016-12-05T11:08:25.314Z,227
2016-12-05T11:09:25.697Z,227
2016-12-05T11:10:26.255Z,220
2016-12-05T11:11:26.753Z,214
2016-12-05T11:12:27.433Z,225
2016-12-05T11:13:27.810Z,201
2016-12-05T11:14:28.490Z,200
2016-12-05T11:15:29.019Z,197
2016-12-05T11:16:29.427Z,237
2016-12-05T11:17:29.931Z,260
2016-12-05T11:18:30.629Z,264
2016-12-05T11:19:30.986Z,271
2016-12-05T11:20:31.514Z,290
2016-12-05T11:21:32.047Z,291
2016-12-05T11:22:32.574Z,303
2016-12-05T11:23:33.252Z,313
2016-12-05T11:24:33.633Z,317
2016-12-05T11:25:34.165Z,318
2016-12-05T11:26:34.699Z,318
2016-12-05T11:27:35.373Z,308
2016-12-05T11:28:35.905Z,318
2016-12-05T11:29:36.428Z,316
2016-12-05T11:30:36.840Z,315
2016-12-05T11:31:37.493Z,315
2016-12-05T11:32:37.917Z,319
2016-12-05T11:33:38.564Z,319
2016-12-05T11:34:38.949Z,319
2016-12-05T11:35:39.483Z,319
2016-12-05T11:36:40.011Z,319
2016-12-05T11:37:40.687Z,320
2016-12-05T11:38:41.217Z,319
2016-12-05T11:39:41.603Z,318
2016-12-05T11:40:42.280Z,318
2016-12-05T11:41:42.664Z,313
2016-12-05T11:42:43.223Z,313
2016-12-05T11:43:43.727Z,318
2016-12-05T11:44:44.264Z,317
2016-12-05T11:45:44.931Z,317
2016-12-05T11:46:45.349Z,317
2016-12-05T11:47:45.845Z,320
2016-12-05T11:48:46.368Z,319
2016-12-05T11:49:47.049Z,319
2016-12-05T11:50:47.459Z,319
2016-12-05T11:51:48.110Z,319
2016-12-05T11:52:48.498Z,316
2016-12-05T11:53:49.170Z,313
2016-12-05T11:54:49.561Z,313
2016-12-05T11:55:50.089Z,308
2016-12-05T11:56:50.800Z,305
2016-12-05T11:57:51.289Z,291
2016-12-05T11:58:51.670Z,308
2016-12-05T11:59:52.201Z,314
2016-12-05T12:00:52.765Z,300
2016-12-05T12:01:53.264Z,295
2016-12-05T12:02:53.828Z,278
2016-12-05T12:03:54.321Z,295
2016-12-05T12:04:54.876Z,289
2016-12-05T12:05:55.380Z,253
2016-12-05T12:06:55.950Z,227
2016-12-05T12:07:56.591Z,230
2016-12-05T12:08:56.977Z,193
2016-12-05T12:09:57.506Z,186
2016-12-05T12:10:58.183Z,187
2016-12-05T12:11:58.564Z,208
2016-12-05T12:12:59.122Z,227
2016-12-05T12:13:59.628Z,232
2016-12-05T12:15:00.161Z,221
2016-12-05T12:16:00.694Z,208
2016-12-05T12:17:01.368Z,199
2016-12-05T12:18:01.751Z,214
2016-12-05T12:19:02.427Z,215
2016-12-05T12:20:02.807Z,224
2016-12-05T12:21:03.359Z,228
2016-12-05T12:22:04.013Z,228
2016-12-05T12:23:04.548Z,242
2016-12-05T12:24:04.928Z,233
2016-12-05T12:25:05.497Z,222
2016-12-05T12:26:05.991Z,229
2016-12-05T12:27:06.557Z,217
2016-12-05T12:28:07.052Z,205
2016-12-05T12:29:07.606Z,184
2016-12-05T12:30:08.111Z,180
2016-12-05T12:31:08.667Z,187
2016-12-05T12:32:09.314Z,185
2016-12-05T12:33:09.702Z,207
2016-12-05T12:34:10.226Z,225
2016-12-05T12:35:10.784Z,236
2016-12-05T12:36:11.289Z,234
2016-12-05T12:37:11.833Z,230
2016-12-05T12:38:12.346Z,226
2016-12-05T12:39:13.026Z,218
2016-12-05T12:40:13.411Z,209
2016-12-05T12:41:14.089Z,193
2016-12-05T12:42:14.610Z,186
2016-12-05T12:43:14.996Z,168
2016-12-05T12:44:15.523Z,166
2016-12-05T12:45:16.064Z,167
2016-12-05T12:46:16.577Z,171
2016-12-05T12:47:17.107Z,177
2016-12-05T12:48:17.788Z,175
2016-12-05T12:49:18.171Z,185
2016-12-05T12:50:18.851Z,188
2016-12-05T12:51:19.236Z,195
2016-12-05T12:52:19.769Z,178
2016-12-05T12:53:20.319Z,171
2016-12-05T12:54:20.985Z,167
2016-12-05T12:55:21.526Z,161
2016-12-05T12:56:22.052Z,171
2016-12-05T12:57:22.437Z,186
2016-12-05T12:58:22.965Z,159
2016-12-05T12:59:23.493Z,194
2016-12-05T13:00:24.169Z,187
2016-12-05T13:01:24.558Z,174
2016-12-05T13:02:25.229Z,171
2016-12-05T13:03:25.639Z,180
2016-12-05T13:04:26.140Z,187
2016-12-05T13:05:26.820Z,185
2016-12-05T13:06:27.202Z,182
2016-12-05T13:07:27.724Z,180
2016-12-05T13:08:28.259Z,178
2016-12-05T13:09:28.785Z,175
2016-12-05T13:10:29.318Z,173
2016-12-05T13:11:29.848Z,171
2016-12-05T13:12:30.380Z,168
2016-12-05T13:13:30.918Z,160
2016-12-05T13:14:31.583Z,160
2016-12-05T13:15:32.116Z,158
2016-12-05T13:16:32.526Z,155
2016-12-05T13:17:33.025Z,153
2016-12-05T13:18:33.706Z,155
2016-12-05T13:19:34.239Z,152
2016-12-05T13:20:34.765Z,154
2016-12-05T13:21:35.168Z,153
2016-12-05T13:22:35.680Z,147
2016-12-05T13:23:36.247Z,142
2016-12-05T13:24:36.740Z,138
2016-12-05T13:25:37.267Z,117
2016-12-05T13:26:37.944Z,134
2016-12-05T13:27:38.473Z,136
2016-12-05T13:28:38.859Z,135
2016-12-05T13:29:39.529Z,139
2016-12-05T13:30:39.909Z,129
2016-12-05T13:31:40.588Z,120
2016-12-05T13:32:41.119Z,112
2016-12-05T13:33:41.504Z,107
2016-12-05T13:34:42.037Z,105
2016-12-05T13:35:42.597Z,107
2016-12-05T13:36:43.105Z,108
2016-12-05T13:37:43.661Z,90
2016-12-05T13:38:44.311Z,78
2016-12-05T13:39:44.694Z,66
2016-12-05T13:40:45.374Z,71
2016-12-05T13:41:45.758Z,56
2016-12-05T13:42:46.291Z,30
2016-12-05T13:43:46.820Z,23
2016-12-05T13:44:47.492Z,24
2016-12-05T13:45:47.877Z,38
2016-12-05T13:46:48.551Z,36
2016-12-05T13:47:49.084Z,35
2016-12-05T13:48:49.463Z,35
2016-12-05T13:49:49.990Z,34
2016-12-05T13:50:50.671Z,34
2016-12-05T13:51:51.047Z,33
2016-12-05T13:52:51.583Z,32
2016-12-05T13:53:52.257Z,32
2016-12-05T13:54:52.641Z,31
2016-12-05T13:55:53.319Z,31
2016-12-05T13:56:53.704Z,31
2016-12-05T13:57:54.272Z,30
2016-12-05T13:58:54.915Z,29
2016-12-05T13:59:55.448Z,29
2016-12-05T14:00:55.837Z,28
2016-12-05T14:01:56.506Z,28
2016-12-05T14:02:57.033Z,27
2016-12-05T14:03:57.413Z,27
2016-12-05T14:04:58.093Z,26
2016-12-05T14:05:58.626Z,25
2016-12-05T14:06:59.154Z,25
2016-12-05T14:07:59.537Z,23
2016-12-05T14:09:00.070Z,24
2016-12-05T14:10:00.597Z,24
2016-12-05T14:11:01.272Z,23
2016-12-05T14:12:01.677Z,23
2016-12-05T14:13:02.181Z,22
2016-12-05T14:14:02.741Z,22
2016-12-05T14:15:03.250Z,21
2016-12-05T14:16:03.780Z,21
2016-12-05T14:17:04.459Z,21
2016-12-05T14:18:04.878Z,20
2016-12-05T14:19:05.383Z,20
2016-12-05T14:20:05.905Z,20
2016-12-05T14:21:06.581Z,20
2016-12-05T14:22:06.990Z,19
2016-12-05T14:23:07.499Z,18
2016-12-05T14:24:08.050Z,18
2016-12-05T14:25:08.696Z,18
2016-12-05T14:26:09.109Z,17
2016-12-05T14:27:09.758Z,16
2016-12-05T14:28:10.138Z,16
2016-12-05T14:29:10.669Z,15
2016-12-05T14:30:11.200Z,14